sensor_id;sensor_type;location;lat;lon;timestamp;temperature;humidity
25582;DHT22;13462;50.764;4.332;2023-12-04T00:00:27;2.80;99.90
25582;DHT22;13462;50.764;4.332;2023-12-04T00:02:53;2.80;99.90
25582;DHT22;13462;50.764;4.332;2023-12-04T00:05:18;2.70;99.90
25582;DHT22;13462;50.764;4.332;2023-12-04T00:07:44;2.70;99.90
25582;DHT22;13462;50.764;4.332;2023-12-04T00:10:10;2.70;99.90
25582;DHT22;13462;50.764;4.332;2023-12-04T00:12:35;2.70;99.90
25582;DHT22;13462;50.764;4.332;2023-12-04T00:15:01;2.80;99.90
25582;DHT22;13462;50.764;4.332;2023-12-04T00:17:27;2.80;99.90
25582;DHT22;13462;50.764;4.332;2023-12-04T00:19:52;2.80;99.90
25582;DHT22;13462;50.764;4.332;2023-12-04T00:22:18;2.80;99.90
25582;DHT22;13462;50.764;4.332;2023-12-04T00:24:43;2.80;99.90
25582;DHT22;13462;50.764;4.332;2023-12-04T00:27:09;2.90;99.90
25582;DHT22;13462;50.764;4.332;2023-12-04T00:29:35;2.90;99.90
25582;DHT22;13462;50.764;4.332;2023-12-04T00:32:01;2.90;99.90
25582;DHT22;13462;50.764;4.332;2023-12-04T00:34:26;2.90;99.90
25582;DHT22;13462;50.764;4.332;2023-12-04T00:36:52;2.90;99.90
25582;DHT22;13462;50.764;4.332;2023-12-04T00:39:17;2.90;99.90
25582;DHT22;13462;50.764;4.332;2023-12-04T00:41:43;2.90;99.90
25582;DHT22;13462;50.764;4.332;2023-12-04T00:44:08;3.00;99.90
25582;DHT22;13462;50.764;4.332;2023-12-04T00:46:34;3.00;99.90
25582;DHT22;13462;50.764;4.332;2023-12-04T00:49:00;3.00;99.90
25582;DHT22;13462;50.764;4.332;2023-12-04T00:51:25;3.00;99.90
25582;DHT22;13462;50.764;4.332;2023-12-04T00:53:51;3.00;99.90
25582;DHT22;13462;50.764;4.332;2023-12-04T00:56:17;3.00;99.90
25582;DHT22;13462;50.764;4.332;2023-12-04T00:58:44;2.90;99.90
25582;DHT22;13462;50.764;4.332;2023-12-04T01:01:09;3.00;99.90
25582;DHT22;13462;50.764;4.332;2023-12-04T01:03:35;2.90;99.90
25582;DHT22;13462;50.764;4.332;2023-12-04T01:06:00;3.00;99.90
25582;DHT22;13462;50.764;4.332;2023-12-04T01:08:26;3.00;99.90
25582;DHT22;13462;50.764;4.332;2023-12-04T01:10:52;3.00;99.90
25582;DHT22;13462;50.764;4.332;2023-12-04T01:13:17;3.00;99.90
25582;DHT22;13462;50.764;4.332;2023-12-04T01:15:43;3.00;99.90
25582;DHT22;13462;50.764;4.332;2023-12-04T01:18:10;3.00;99.90
25582;DHT22;13462;50.764;4.332;2023-12-04T01:20:35;2.90;99.90
25582;DHT22;13462;50.764;4.332;2023-12-04T01:23:01;3.00;99.90
25582;DHT22;13462;50.764;4.332;2023-12-04T01:25:27;3.00;99.90
25582;DHT22;13462;50.764;4.332;2023-12-04T01:27:53;3.10;99.90
25582;DHT22;13462;50.764;4.332;2023-12-04T01:30:18;3.10;99.90
25582;DHT22;13462;50.764;4.332;2023-12-04T01:32:44;3.00;99.90
25582;DHT22;13462;50.764;4.332;2023-12-04T01:35:09;3.10;99.90
25582;DHT22;13462;50.764;4.332;2023-12-04T01:37:37;3.10;99.90
25582;DHT22;13462;50.764;4.332;2023-12-04T01:40:03;3.10;99.90
25582;DHT22;13462;50.764;4.332;2023-12-04T01:42:32;3.10;99.90
25582;DHT22;13462;50.764;4.332;2023-12-04T01:44:58;3.10;99.90
25582;DHT22;13462;50.764;4.332;2023-12-04T01:47:23;3.10;99.90
25582;DHT22;13462;50.764;4.332;2023-12-04T01:49:49;3.10;99.90
25582;DHT22;13462;50.764;4.332;2023-12-04T01:52:15;3.10;99.90
25582;DHT22;13462;50.764;4.332;2023-12-04T01:54:42;3.10;99.90
25582;DHT22;13462;50.764;4.332;2023-12-04T01:57:08;3.20;99.90
25582;DHT22;13462;50.764;4.332;2023-12-04T01:59:34;3.10;99.90
25582;DHT22;13462;50.764;4.332;2023-12-04T02:02:00;3.20;99.90
25582;DHT22;13462;50.764;4.332;2023-12-04T02:04:27;3.10;99.90
25582;DHT22;13462;50.764;4.332;2023-12-04T02:06:53;3.10;99.90
25582;DHT22;13462;50.764;4.332;2023-12-04T02:09:19;3.10;99.90
25582;DHT22;13462;50.764;4.332;2023-12-04T02:11:45;3.10;99.90
25582;DHT22;13462;50.764;4.332;2023-12-04T02:14:10;3.10;99.90
25582;DHT22;13462;50.764;4.332;2023-12-04T02:16:40;3.00;99.90
25582;DHT22;13462;50.764;4.332;2023-12-04T02:19:07;3.10;99.90
25582;DHT22;13462;50.764;4.332;2023-12-04T02:21:34;3.10;99.90
25582;DHT22;13462;50.764;4.332;2023-12-04T02:24:00;3.00;99.90
25582;DHT22;13462;50.764;4.332;2023-12-04T02:26:30;3.00;99.90
25582;DHT22;13462;50.764;4.332;2023-12-04T02:29:05;3.00;99.90
25582;DHT22;13462;50.764;4.332;2023-12-04T02:31:34;3.00;99.90
25582;DHT22;13462;50.764;4.332;2023-12-04T02:34:01;3.00;99.90
25582;DHT22;13462;50.764;4.332;2023-12-04T02:36:31;3.00;99.90
25582;DHT22;13462;50.764;4.332;2023-12-04T02:38:57;3.00;99.90
25582;DHT22;13462;50.764;4.332;2023-12-04T02:41:23;3.00;99.90
25582;DHT22;13462;50.764;4.332;2023-12-04T02:43:49;3.00;99.90
25582;DHT22;13462;50.764;4.332;2023-12-04T02:46:15;2.90;99.90
25582;DHT22;13462;50.764;4.332;2023-12-04T02:48:40;2.90;99.90
25582;DHT22;13462;50.764;4.332;2023-12-04T02:51:07;2.90;99.90
25582;DHT22;13462;50.764;4.332;2023-12-04T02:53:32;2.90;99.90
25582;DHT22;13462;50.764;4.332;2023-12-04T02:55:58;3.00;99.90
25582;DHT22;13462;50.764;4.332;2023-12-04T02:58:23;2.90;99.90
25582;DHT22;13462;50.764;4.332;2023-12-04T03:00:49;2.90;99.90
25582;DHT22;13462;50.764;4.332;2023-12-04T03:03:15;2.90;99.90
25582;DHT22;13462;50.764;4.332;2023-12-04T03:05:40;2.90;99.90
25582;DHT22;13462;50.764;4.332;2023-12-04T03:08:06;3.00;99.90
25582;DHT22;13462;50.764;4.332;2023-12-04T03:10:32;3.00;99.90
25582;DHT22;13462;50.764;4.332;2023-12-04T03:12:57;3.00;99.90
25582;DHT22;13462;50.764;4.332;2023-12-04T03:15:23;3.00;99.90
25582;DHT22;13462;50.764;4.332;2023-12-04T03:17:48;3.00;99.90
25582;DHT22;13462;50.764;4.332;2023-12-04T03:20:14;3.00;99.90
25582;DHT22;13462;50.764;4.332;2023-12-04T03:22:40;3.00;99.90
25582;DHT22;13462;50.764;4.332;2023-12-04T03:25:06;3.10;99.90
25582;DHT22;13462;50.764;4.332;2023-12-04T03:27:31;3.10;99.90
25582;DHT22;13462;50.764;4.332;2023-12-04T03:29:57;3.10;99.90
25582;DHT22;13462;50.764;4.332;2023-12-04T03:32:23;3.10;99.90
25582;DHT22;13462;50.764;4.332;2023-12-04T03:34:48;3.10;99.90
25582;DHT22;13462;50.764;4.332;2023-12-04T03:37:14;3.10;99.90
25582;DHT22;13462;50.764;4.332;2023-12-04T03:39:39;3.10;99.90
25582;DHT22;13462;50.764;4.332;2023-12-04T03:42:05;3.10;99.90
25582;DHT22;13462;50.764;4.332;2023-12-04T03:44:30;3.10;99.90
25582;DHT22;13462;50.764;4.332;2023-12-04T03:46:56;3.10;99.90
25582;DHT22;13462;50.764;4.332;2023-12-04T03:49:22;3.00;99.90
25582;DHT22;13462;50.764;4.332;2023-12-04T03:51:47;3.00;99.90
25582;DHT22;13462;50.764;4.332;2023-12-04T03:54:13;2.90;99.90
25582;DHT22;13462;50.764;4.332;2023-12-04T03:56:39;2.90;99.90
25582;DHT22;13462;50.764;4.332;2023-12-04T03:59:05;2.90;99.90
25582;DHT22;13462;50.764;4.332;2023-12-04T04:01:31;3.00;99.90
25582;DHT22;13462;50.764;4.332;2023-12-04T04:03:56;3.00;99.90
25582;DHT22;13462;50.764;4.332;2023-12-04T04:06:22;3.00;99.90
25582;DHT22;13462;50.764;4.332;2023-12-04T04:08:48;3.00;99.90
25582;DHT22;13462;50.764;4.332;2023-12-04T04:11:13;3.00;99.90
25582;DHT22;13462;50.764;4.332;2023-12-04T04:13:39;3.00;99.90
25582;DHT22;13462;50.764;4.332;2023-12-04T04:16:05;3.00;99.90
25582;DHT22;13462;50.764;4.332;2023-12-04T04:18:31;3.00;99.90
25582;DHT22;13462;50.764;4.332;2023-12-04T04:20:56;3.00;99.90
25582;DHT22;13462;50.764;4.332;2023-12-04T04:23:22;3.00;99.90
25582;DHT22;13462;50.764;4.332;2023-12-04T04:25:48;3.00;99.90
25582;DHT22;13462;50.764;4.332;2023-12-04T04:28:13;3.10;99.90
25582;DHT22;13462;50.764;4.332;2023-12-04T04:30:39;3.00;99.90
25582;DHT22;13462;50.764;4.332;2023-12-04T04:33:05;3.10;99.90
25582;DHT22;13462;50.764;4.332;2023-12-04T04:35:31;3.10;99.90
25582;DHT22;13462;50.764;4.332;2023-12-04T04:37:57;3.10;99.90
25582;DHT22;13462;50.764;4.332;2023-12-04T04:40:22;3.10;99.90
25582;DHT22;13462;50.764;4.332;2023-12-04T04:42:48;3.10;99.90
25582;DHT22;13462;50.764;4.332;2023-12-04T04:45:14;3.20;99.90
25582;DHT22;13462;50.764;4.332;2023-12-04T04:47:39;3.20;99.90
25582;DHT22;13462;50.764;4.332;2023-12-04T04:50:05;3.20;99.90
25582;DHT22;13462;50.764;4.332;2023-12-04T04:52:31;3.20;99.90
25582;DHT22;13462;50.764;4.332;2023-12-04T04:54:57;3.20;99.90
25582;DHT22;13462;50.764;4.332;2023-12-04T04:57:22;3.20;99.90
25582;DHT22;13462;50.764;4.332;2023-12-04T04:59:48;3.20;99.90
25582;DHT22;13462;50.764;4.332;2023-12-04T05:02:13;3.20;99.90
25582;DHT22;13462;50.764;4.332;2023-12-04T05:04:39;3.20;99.90
25582;DHT22;13462;50.764;4.332;2023-12-04T05:07:04;3.20;99.90
25582;DHT22;13462;50.764;4.332;2023-12-04T05:09:30;3.20;99.90
25582;DHT22;13462;50.764;4.332;2023-12-04T05:11:56;3.20;99.90
25582;DHT22;13462;50.764;4.332;2023-12-04T05:14:21;3.20;99.90
25582;DHT22;13462;50.764;4.332;2023-12-04T05:16:47;3.20;99.90
25582;DHT22;13462;50.764;4.332;2023-12-04T05:19:13;3.30;99.90
25582;DHT22;13462;50.764;4.332;2023-12-04T05:21:38;3.30;99.90
25582;DHT22;13462;50.764;4.332;2023-12-04T05:24:04;3.30;99.90
25582;DHT22;13462;50.764;4.332;2023-12-04T05:26:29;3.30;99.90
25582;DHT22;13462;50.764;4.332;2023-12-04T05:28:55;3.30;99.90
25582;DHT22;13462;50.764;4.332;2023-12-04T05:31:21;3.30;99.90
25582;DHT22;13462;50.764;4.332;2023-12-04T05:33:46;3.40;99.90
25582;DHT22;13462;50.764;4.332;2023-12-04T05:36:12;3.40;99.90
25582;DHT22;13462;50.764;4.332;2023-12-04T05:38:37;3.40;99.90
25582;DHT22;13462;50.764;4.332;2023-12-04T05:41:03;3.40;99.90
25582;DHT22;13462;50.764;4.332;2023-12-04T05:43:29;3.50;99.90
25582;DHT22;13462;50.764;4.332;2023-12-04T05:45:54;3.50;99.90
25582;DHT22;13462;50.764;4.332;2023-12-04T05:48:20;3.50;99.90
25582;DHT22;13462;50.764;4.332;2023-12-04T05:50:45;3.60;99.90
25582;DHT22;13462;50.764;4.332;2023-12-04T05:53:11;3.50;99.90
25582;DHT22;13462;50.764;4.332;2023-12-04T05:55:37;3.60;99.90
25582;DHT22;13462;50.764;4.332;2023-12-04T05:58:02;3.50;99.90
25582;DHT22;13462;50.764;4.332;2023-12-04T06:00:28;3.60;99.90
25582;DHT22;13462;50.764;4.332;2023-12-04T06:02:54;3.60;99.90
25582;DHT22;13462;50.764;4.332;2023-12-04T06:05:19;3.50;99.90
25582;DHT22;13462;50.764;4.332;2023-12-04T06:07:45;3.50;99.90
25582;DHT22;13462;50.764;4.332;2023-12-04T06:10:11;3.50;99.90
25582;DHT22;13462;50.764;4.332;2023-12-04T06:12:36;3.50;99.90
25582;DHT22;13462;50.764;4.332;2023-12-04T06:15:02;3.50;99.90
25582;DHT22;13462;50.764;4.332;2023-12-04T06:17:28;3.50;99.90
25582;DHT22;13462;50.764;4.332;2023-12-04T06:19:54;3.60;99.90
25582;DHT22;13462;50.764;4.332;2023-12-04T06:22:20;3.50;99.90
25582;DHT22;13462;50.764;4.332;2023-12-04T06:24:47;3.50;99.90
25582;DHT22;13462;50.764;4.332;2023-12-04T06:27:17;3.60;99.90
25582;DHT22;13462;50.764;4.332;2023-12-04T06:29:47;3.50;99.90
25582;DHT22;13462;50.764;4.332;2023-12-04T06:32:13;3.60;99.90
25582;DHT22;13462;50.764;4.332;2023-12-04T06:34:39;3.50;99.90
25582;DHT22;13462;50.764;4.332;2023-12-04T06:37:10;3.50;99.90
25582;DHT22;13462;50.764;4.332;2023-12-04T06:39:37;3.50;99.90
25582;DHT22;13462;50.764;4.332;2023-12-04T06:42:07;3.50;99.90
25582;DHT22;13462;50.764;4.332;2023-12-04T06:44:34;3.60;99.90
25582;DHT22;13462;50.764;4.332;2023-12-04T06:47:03;3.50;99.90
25582;DHT22;13462;50.764;4.332;2023-12-04T06:49:31;3.50;99.90
25582;DHT22;13462;50.764;4.332;2023-12-04T06:51:57;3.50;99.90
25582;DHT22;13462;50.764;4.332;2023-12-04T06:54:23;3.50;99.90
25582;DHT22;13462;50.764;4.332;2023-12-04T06:56:49;3.50;99.90
25582;DHT22;13462;50.764;4.332;2023-12-04T06:59:14;3.60;99.90
25582;DHT22;13462;50.764;4.332;2023-12-04T07:01:40;3.60;99.90
25582;DHT22;13462;50.764;4.332;2023-12-04T07:04:05;3.60;99.90
25582;DHT22;13462;50.764;4.332;2023-12-04T07:06:38;3.60;99.90
25582;DHT22;13462;50.764;4.332;2023-12-04T07:09:04;3.60;99.90
25582;DHT22;13462;50.764;4.332;2023-12-04T07:11:30;3.60;99.90
25582;DHT22;13462;50.764;4.332;2023-12-04T07:13:56;3.60;99.90
25582;DHT22;13462;50.764;4.332;2023-12-04T07:16:22;3.60;99.90
25582;DHT22;13462;50.764;4.332;2023-12-04T07:18:47;3.60;99.90
25582;DHT22;13462;50.764;4.332;2023-12-04T07:21:13;3.70;99.90
25582;DHT22;13462;50.764;4.332;2023-12-04T07:23:38;3.70;99.90
25582;DHT22;13462;50.764;4.332;2023-12-04T07:26:04;3.70;99.90
25582;DHT22;13462;50.764;4.332;2023-12-04T07:28:32;3.70;99.90
25582;DHT22;13462;50.764;4.332;2023-12-04T07:30:58;3.70;99.90
25582;DHT22;13462;50.764;4.332;2023-12-04T07:33:23;3.70;99.90
25582;DHT22;13462;50.764;4.332;2023-12-04T07:35:49;3.70;99.90
25582;DHT22;13462;50.764;4.332;2023-12-04T07:38:14;3.70;99.90
25582;DHT22;13462;50.764;4.332;2023-12-04T07:40:40;3.60;99.90
25582;DHT22;13462;50.764;4.332;2023-12-04T07:43:06;3.60;99.90
25582;DHT22;13462;50.764;4.332;2023-12-04T07:45:31;3.60;99.90
25582;DHT22;13462;50.764;4.332;2023-12-04T07:47:57;3.60;99.90
25582;DHT22;13462;50.764;4.332;2023-12-04T07:50:23;3.60;99.90
25582;DHT22;13462;50.764;4.332;2023-12-04T07:52:49;3.50;99.90
25582;DHT22;13462;50.764;4.332;2023-12-04T07:55:15;3.50;99.90
25582;DHT22;13462;50.764;4.332;2023-12-04T07:57:40;3.60;99.90
25582;DHT22;13462;50.764;4.332;2023-12-04T08:00:06;3.60;99.90
25582;DHT22;13462;50.764;4.332;2023-12-04T08:02:32;3.60;99.90
25582;DHT22;13462;50.764;4.332;2023-12-04T08:04:58;3.60;99.90
25582;DHT22;13462;50.764;4.332;2023-12-04T08:07:23;3.60;99.90
25582;DHT22;13462;50.764;4.332;2023-12-04T08:09:50;3.60;99.90
25582;DHT22;13462;50.764;4.332;2023-12-04T08:12:16;3.50;99.90
25582;DHT22;13462;50.764;4.332;2023-12-04T08:14:41;3.50;99.90
25582;DHT22;13462;50.764;4.332;2023-12-04T08:17:07;3.50;99.90
25582;DHT22;13462;50.764;4.332;2023-12-04T08:19:33;3.50;99.90
25582;DHT22;13462;50.764;4.332;2023-12-04T08:21:59;3.60;99.90
25582;DHT22;13462;50.764;4.332;2023-12-04T08:24:25;3.60;99.90
25582;DHT22;13462;50.764;4.332;2023-12-04T08:26:50;3.60;99.90
25582;DHT22;13462;50.764;4.332;2023-12-04T08:29:16;3.60;99.90
25582;DHT22;13462;50.764;4.332;2023-12-04T08:31:43;3.60;99.90
25582;DHT22;13462;50.764;4.332;2023-12-04T08:34:08;3.70;99.90
25582;DHT22;13462;50.764;4.332;2023-12-04T08:36:34;3.70;99.90
25582;DHT22;13462;50.764;4.332;2023-12-04T08:39:00;3.70;99.90
25582;DHT22;13462;50.764;4.332;2023-12-04T08:41:25;3.60;99.90
25582;DHT22;13462;50.764;4.332;2023-12-04T08:43:53;3.60;99.90
25582;DHT22;13462;50.764;4.332;2023-12-04T08:46:20;3.60;99.90
25582;DHT22;13462;50.764;4.332;2023-12-04T08:48:46;3.60;99.90
25582;DHT22;13462;50.764;4.332;2023-12-04T08:51:18;3.60;99.90
25582;DHT22;13462;50.764;4.332;2023-12-04T08:53:44;3.60;99.90
25582;DHT22;13462;50.764;4.332;2023-12-04T08:56:10;3.50;99.90
25582;DHT22;13462;50.764;4.332;2023-12-04T08:58:37;3.50;99.90
25582;DHT22;13462;50.764;4.332;2023-12-04T09:01:03;3.50;99.90
25582;DHT22;13462;50.764;4.332;2023-12-04T09:03:29;3.50;99.90
25582;DHT22;13462;50.764;4.332;2023-12-04T09:05:57;3.40;99.90
25582;DHT22;13462;50.764;4.332;2023-12-04T09:08:23;3.50;99.90
25582;DHT22;13462;50.764;4.332;2023-12-04T09:10:51;3.50;99.90
25582;DHT22;13462;50.764;4.332;2023-12-04T09:13:16;3.50;99.90
25582;DHT22;13462;50.764;4.332;2023-12-04T09:15:42;3.50;99.90
25582;DHT22;13462;50.764;4.332;2023-12-04T09:18:08;3.50;99.90
25582;DHT22;13462;50.764;4.332;2023-12-04T09:20:35;3.60;99.90
25582;DHT22;13462;50.764;4.332;2023-12-04T09:23:02;3.60;99.90
25582;DHT22;13462;50.764;4.332;2023-12-04T09:25:27;3.60;99.90
25582;DHT22;13462;50.764;4.332;2023-12-04T09:27:53;3.60;99.90
25582;DHT22;13462;50.764;4.332;2023-12-04T09:30:18;3.50;99.90
25582;DHT22;13462;50.764;4.332;2023-12-04T09:32:44;3.50;99.90
25582;DHT22;13462;50.764;4.332;2023-12-04T09:35:10;3.60;99.90
25582;DHT22;13462;50.764;4.332;2023-12-04T09:37:36;3.50;99.90
25582;DHT22;13462;50.764;4.332;2023-12-04T09:40:02;3.40;99.90
25582;DHT22;13462;50.764;4.332;2023-12-04T09:42:29;3.40;99.90
25582;DHT22;13462;50.764;4.332;2023-12-04T09:44:55;3.30;99.90
25582;DHT22;13462;50.764;4.332;2023-12-04T09:47:21;3.30;99.90
25582;DHT22;13462;50.764;4.332;2023-12-04T09:49:51;3.20;99.90
25582;DHT22;13462;50.764;4.332;2023-12-04T09:52:17;3.10;99.90
25582;DHT22;13462;50.764;4.332;2023-12-04T09:54:44;3.00;99.90
25582;DHT22;13462;50.764;4.332;2023-12-04T09:57:10;2.90;99.90
25582;DHT22;13462;50.764;4.332;2023-12-04T09:59:49;2.90;99.90
25582;DHT22;13462;50.764;4.332;2023-12-04T10:02:19;2.90;99.90
25582;DHT22;13462;50.764;4.332;2023-12-04T10:04:45;2.80;99.90
25582;DHT22;13462;50.764;4.332;2023-12-04T10:07:11;2.80;99.90
25582;DHT22;13462;50.764;4.332;2023-12-04T10:09:37;2.80;99.90
25582;DHT22;13462;50.764;4.332;2023-12-04T10:12:19;2.90;99.90
25582;DHT22;13462;50.764;4.332;2023-12-04T10:15:03;2.90;99.90
25582;DHT22;13462;50.764;4.332;2023-12-04T10:17:36;2.90;99.90
25582;DHT22;13462;50.764;4.332;2023-12-04T10:20:13;3.00;99.90
25582;DHT22;13462;50.764;4.332;2023-12-04T10:22:54;3.00;99.90
25582;DHT22;13462;50.764;4.332;2023-12-04T10:25:20;3.00;99.90
25582;DHT22;13462;50.764;4.332;2023-12-04T10:28:08;3.00;99.90
25582;DHT22;13462;50.764;4.332;2023-12-04T10:30:33;3.20;99.90
25582;DHT22;13462;50.764;4.332;2023-12-04T10:33:01;3.30;99.90
25582;DHT22;13462;50.764;4.332;2023-12-04T10:35:31;3.30;99.90
25582;DHT22;13462;50.764;4.332;2023-12-04T10:38:15;3.40;99.90
25582;DHT22;13462;50.764;4.332;2023-12-04T10:40:41;3.30;99.90
25582;DHT22;13462;50.764;4.332;2023-12-04T10:43:21;3.20;99.90
25582;DHT22;13462;50.764;4.332;2023-12-04T10:46:07;3.20;99.90
25582;DHT22;13462;50.764;4.332;2023-12-04T10:48:33;3.20;99.90
25582;DHT22;13462;50.764;4.332;2023-12-04T10:50:59;3.30;99.90
25582;DHT22;13462;50.764;4.332;2023-12-04T10:53:25;3.50;99.90
25582;DHT22;13462;50.764;4.332;2023-12-04T10:58:39;3.80;99.90
25582;DHT22;13462;50.764;4.332;2023-12-04T11:01:07;4.00;99.90
25582;DHT22;13462;50.764;4.332;2023-12-04T11:06:51;4.30;99.90
25582;DHT22;13462;50.764;4.332;2023-12-04T11:09:17;4.20;99.90
25582;DHT22;13462;50.764;4.332;2023-12-04T11:11:48;4.10;99.90
25582;DHT22;13462;50.764;4.332;2023-12-04T11:14:22;4.20;99.90
25582;DHT22;13462;50.764;4.332;2023-12-04T11:16:49;4.20;99.90
25582;DHT22;13462;50.764;4.332;2023-12-04T11:19:59;4.20;99.90
25582;DHT22;13462;50.764;4.332;2023-12-04T11:22:25;4.20;99.90
25582;DHT22;13462;50.764;4.332;2023-12-04T11:24:51;4.00;99.90
25582;DHT22;13462;50.764;4.332;2023-12-04T11:27:18;3.90;99.90
25582;DHT22;13462;50.764;4.332;2023-12-04T11:32:28;3.80;99.90
25582;DHT22;13462;50.764;4.332;2023-12-04T11:34:56;3.70;99.90
25582;DHT22;13462;50.764;4.332;2023-12-04T11:37:25;3.80;99.90
25582;DHT22;13462;50.764;4.332;2023-12-04T11:40:11;3.70;99.90
25582;DHT22;13462;50.764;4.332;2023-12-04T11:42:38;3.70;99.90
25582;DHT22;13462;50.764;4.332;2023-12-04T11:45:05;3.70;99.90
25582;DHT22;13462;50.764;4.332;2023-12-04T11:47:48;3.70;99.90
25582;DHT22;13462;50.764;4.332;2023-12-04T11:50:14;3.70;99.90
25582;DHT22;13462;50.764;4.332;2023-12-04T11:52:41;3.80;99.90
25582;DHT22;13462;50.764;4.332;2023-12-04T11:55:07;3.90;99.90
25582;DHT22;13462;50.764;4.332;2023-12-04T11:57:40;3.80;99.90
25582;DHT22;13462;50.764;4.332;2023-12-04T12:05:20;3.90;99.90
25582;DHT22;13462;50.764;4.332;2023-12-04T12:07:46;4.00;99.90
25582;DHT22;13462;50.764;4.332;2023-12-04T12:10:12;4.00;99.90
25582;DHT22;13462;50.764;4.332;2023-12-04T12:12:45;4.00;99.90
25582;DHT22;13462;50.764;4.332;2023-12-04T12:15:14;3.90;99.90
25582;DHT22;13462;50.764;4.332;2023-12-04T12:17:40;4.00;99.90
25582;DHT22;13462;50.764;4.332;2023-12-04T12:22:36;4.00;99.90
25582;DHT22;13462;50.764;4.332;2023-12-04T12:25:11;4.00;99.90
25582;DHT22;13462;50.764;4.332;2023-12-04T12:27:38;4.10;99.90
25582;DHT22;13462;50.764;4.332;2023-12-04T12:30:04;4.20;99.90
25582;DHT22;13462;50.764;4.332;2023-12-04T12:32:31;4.20;99.90
25582;DHT22;13462;50.764;4.332;2023-12-04T12:34:57;4.30;99.90
25582;DHT22;13462;50.764;4.332;2023-12-04T12:37:31;4.30;99.90
25582;DHT22;13462;50.764;4.332;2023-12-04T12:40:00;4.30;99.90
25582;DHT22;13462;50.764;4.332;2023-12-04T12:42:27;4.30;99.90
25582;DHT22;13462;50.764;4.332;2023-12-04T12:44:54;4.30;99.90
25582;DHT22;13462;50.764;4.332;2023-12-04T12:47:20;4.30;99.90
25582;DHT22;13462;50.764;4.332;2023-12-04T12:49:52;4.30;99.90
25582;DHT22;13462;50.764;4.332;2023-12-04T12:52:26;4.30;99.90
25582;DHT22;13462;50.764;4.332;2023-12-04T12:54:52;4.20;99.90
25582;DHT22;13462;50.764;4.332;2023-12-04T12:57:17;4.20;99.90
25582;DHT22;13462;50.764;4.332;2023-12-04T12:59:44;4.20;99.90
25582;DHT22;13462;50.764;4.332;2023-12-04T13:02:10;4.20;99.90
25582;DHT22;13462;50.764;4.332;2023-12-04T13:04:41;4.30;99.90
25582;DHT22;13462;50.764;4.332;2023-12-04T13:07:07;4.30;99.90
25582;DHT22;13462;50.764;4.332;2023-12-04T13:09:34;4.30;99.90
25582;DHT22;13462;50.764;4.332;2023-12-04T13:12:04;4.30;99.90
25582;DHT22;13462;50.764;4.332;2023-12-04T13:14:45;4.40;99.90
25582;DHT22;13462;50.764;4.332;2023-12-04T13:17:10;4.50;99.90
25582;DHT22;13462;50.764;4.332;2023-12-04T13:19:36;4.40;99.90
25582;DHT22;13462;50.764;4.332;2023-12-04T13:22:02;4.40;99.90
25582;DHT22;13462;50.764;4.332;2023-12-04T13:24:29;4.50;99.90
25582;DHT22;13462;50.764;4.332;2023-12-04T13:27:16;4.50;99.90
25582;DHT22;13462;50.764;4.332;2023-12-04T13:29:41;4.50;99.90
25582;DHT22;13462;50.764;4.332;2023-12-04T13:32:06;4.50;99.90
25582;DHT22;13462;50.764;4.332;2023-12-04T13:34:33;4.50;99.90
25582;DHT22;13462;50.764;4.332;2023-12-04T13:37:12;4.60;99.90
25582;DHT22;13462;50.764;4.332;2023-12-04T13:39:48;4.60;99.90
25582;DHT22;13462;50.764;4.332;2023-12-04T13:42:16;4.70;99.90
25582;DHT22;13462;50.764;4.332;2023-12-04T13:45:20;4.70;99.90
25582;DHT22;13462;50.764;4.332;2023-12-04T13:47:47;4.60;99.90
25582;DHT22;13462;50.764;4.332;2023-12-04T13:50:13;4.70;99.90
25582;DHT22;13462;50.764;4.332;2023-12-04T13:52:39;4.60;99.90
25582;DHT22;13462;50.764;4.332;2023-12-04T13:55:21;4.60;99.90
25582;DHT22;13462;50.764;4.332;2023-12-04T13:58:01;4.50;99.90
25582;DHT22;13462;50.764;4.332;2023-12-04T14:00:30;4.60;99.90
25582;DHT22;13462;50.764;4.332;2023-12-04T14:02:56;4.50;99.90
25582;DHT22;13462;50.764;4.332;2023-12-04T14:05:33;4.50;99.90
25582;DHT22;13462;50.764;4.332;2023-12-04T14:08:00;4.60;99.90
25582;DHT22;13462;50.764;4.332;2023-12-04T14:10:26;4.60;99.90
25582;DHT22;13462;50.764;4.332;2023-12-04T14:12:53;4.60;99.90
25582;DHT22;13462;50.764;4.332;2023-12-04T14:15:21;4.70;99.90
25582;DHT22;13462;50.764;4.332;2023-12-04T14:17:49;4.70;99.90
25582;DHT22;13462;50.764;4.332;2023-12-04T14:20:15;4.70;99.90
25582;DHT22;13462;50.764;4.332;2023-12-04T14:22:44;4.70;99.90
25582;DHT22;13462;50.764;4.332;2023-12-04T14:25:11;4.70;99.90
25582;DHT22;13462;50.764;4.332;2023-12-04T14:27:37;4.70;99.90
25582;DHT22;13462;50.764;4.332;2023-12-04T14:30:14;4.80;99.90
25582;DHT22;13462;50.764;4.332;2023-12-04T14:32:39;4.80;99.90
25582;DHT22;13462;50.764;4.332;2023-12-04T14:35:07;4.80;99.90
25582;DHT22;13462;50.764;4.332;2023-12-04T14:37:33;4.90;99.90
25582;DHT22;13462;50.764;4.332;2023-12-04T14:39:59;4.90;99.90
25582;DHT22;13462;50.764;4.332;2023-12-04T14:42:33;5.00;99.90
25582;DHT22;13462;50.764;4.332;2023-12-04T14:45:01;5.00;99.90
25582;DHT22;13462;50.764;4.332;2023-12-04T14:47:27;5.00;99.90
25582;DHT22;13462;50.764;4.332;2023-12-04T14:49:53;5.10;99.90
25582;DHT22;13462;50.764;4.332;2023-12-04T14:52:21;5.10;99.90
25582;DHT22;13462;50.764;4.332;2023-12-04T14:55:08;5.10;99.90
25582;DHT22;13462;50.764;4.332;2023-12-04T14:57:33;5.10;99.90
25582;DHT22;13462;50.764;4.332;2023-12-04T15:00:09;5.10;99.90
25582;DHT22;13462;50.764;4.332;2023-12-04T15:02:35;5.10;99.90
25582;DHT22;13462;50.764;4.332;2023-12-04T15:05:19;5.10;99.90
25582;DHT22;13462;50.764;4.332;2023-12-04T15:08:03;5.10;99.90
25582;DHT22;13462;50.764;4.332;2023-12-04T15:10:31;5.10;99.90
25582;DHT22;13462;50.764;4.332;2023-12-04T15:13:16;5.10;99.90
25582;DHT22;13462;50.764;4.332;2023-12-04T15:15:50;5.10;99.90
25582;DHT22;13462;50.764;4.332;2023-12-04T15:18:34;5.00;99.90
25582;DHT22;13462;50.764;4.332;2023-12-04T15:21:09;5.00;99.90
25582;DHT22;13462;50.764;4.332;2023-12-04T15:23:35;5.10;99.90
25582;DHT22;13462;50.764;4.332;2023-12-04T15:26:00;5.10;99.90
25582;DHT22;13462;50.764;4.332;2023-12-04T15:28:27;5.10;99.90
25582;DHT22;13462;50.764;4.332;2023-12-04T15:30:53;5.10;99.90
25582;DHT22;13462;50.764;4.332;2023-12-04T15:33:21;5.10;99.90
25582;DHT22;13462;50.764;4.332;2023-12-04T15:35:49;5.10;99.90
25582;DHT22;13462;50.764;4.332;2023-12-04T15:38:15;5.10;99.90
25582;DHT22;13462;50.764;4.332;2023-12-04T15:40:40;5.20;99.90
25582;DHT22;13462;50.764;4.332;2023-12-04T15:43:06;5.20;99.90
25582;DHT22;13462;50.764;4.332;2023-12-04T15:45:32;5.20;99.90
25582;DHT22;13462;50.764;4.332;2023-12-04T15:47:58;5.20;99.90
25582;DHT22;13462;50.764;4.332;2023-12-04T15:50:23;5.20;99.90
25582;DHT22;13462;50.764;4.332;2023-12-04T15:52:50;5.20;99.90
25582;DHT22;13462;50.764;4.332;2023-12-04T15:55:16;5.30;99.90
25582;DHT22;13462;50.764;4.332;2023-12-04T15:57:41;5.30;99.90
25582;DHT22;13462;50.764;4.332;2023-12-04T16:00:07;5.30;99.90
25582;DHT22;13462;50.764;4.332;2023-12-04T16:02:39;5.40;99.90